createdAt,value
2022-09-27T00:01:07.837Z,82.23
2022-09-27T00:03:35.226Z,82.44
2022-09-27T00:06:23.266Z,82.50
2022-09-27T00:08:50.185Z,82.47
2022-09-27T00:11:27.717Z,82.41
2022-09-27T00:13:56.666Z,82.65
2022-09-27T00:16:26.346Z,82.74
2022-09-27T00:18:53.145Z,82.92
2022-09-27T00:21:20.023Z,83.20
2022-09-27T00:23:46.887Z,83.20
2022-09-27T00:26:14.264Z,83.17
2022-09-27T00:28:41.520Z,83.66
2022-09-27T00:31:21.209Z,83.58
2022-09-27T00:33:50.436Z,83.97
2022-09-27T00:36:18.942Z,83.84
2022-09-27T00:38:46.059Z,83.97
2022-09-27T00:41:25.991Z,84.23
2022-09-27T00:43:56.231Z,84.45
2022-09-27T00:46:35.017Z,84.52
2022-09-27T00:49:13.546Z,84.25
2022-09-27T00:51:42.829Z,84.34
2022-09-27T00:54:12.806Z,84.27
2022-09-27T00:56:40.879Z,84.54
2022-09-27T00:59:14.377Z,84.48
2022-09-27T01:01:41.547Z,84.73
2022-09-27T01:04:15.048Z,84.74
2022-09-27T01:06:41.965Z,84.83
2022-09-27T01:09:11.128Z,84.68
2022-09-27T01:11:59.442Z,84.56
2022-09-27T01:14:46.076Z,84.55
2022-09-27T01:17:31.490Z,84.45
2022-09-27T01:20:13.920Z,84.24
2022-09-27T01:22:59.324Z,83.79
2022-09-27T01:25:51.184Z,83.67
2022-09-27T01:28:54.011Z,83.32
2022-09-27T01:31:20.873Z,83.23
2022-09-27T01:34:09.570Z,83.12
2022-09-27T01:36:46.120Z,83.16
2022-09-27T01:39:50.102Z,83.05
2022-09-27T01:42:50.381Z,82.78
2022-09-27T01:45:38.715Z,82.45
2022-09-27T01:48:34.333Z,82.36
2022-09-27T01:51:13.777Z,82.06
2022-09-27T01:53:53.784Z,81.88
2022-09-27T01:56:46.493Z,81.54
2022-09-27T01:59:31.137Z,81.60
2022-09-27T02:02:12.277Z,81.41
2022-09-27T02:05:06.846Z,81.39
2022-09-27T02:08:07.758Z,80.78
2022-09-27T02:10:41.168Z,81.08
2022-09-27T02:13:29.695Z,81.36
2022-09-27T02:16:23.006Z,81.57
2022-09-27T02:19:02.269Z,81.81
2022-09-27T02:21:56.089Z,82.00
2022-09-27T02:24:30.690Z,82.03
2022-09-27T02:27:08.383Z,82.08
2022-09-27T02:29:45.772Z,82.13
2022-09-27T02:32:12.776Z,82.28
2022-09-27T02:34:41.114Z,82.29
2022-09-27T02:37:08.169Z,82.25
2022-09-27T02:39:37.115Z,82.18
2022-09-27T02:42:07.853Z,82.45
2022-09-27T02:44:37.154Z,82.47
2022-09-27T02:47:24.268Z,82.88
2022-09-27T02:50:17.219Z,83.10
2022-09-27T02:53:17.180Z,83.35
2022-09-27T02:56:27.855Z,83.63
2022-09-27T02:59:35.265Z,83.60
2022-09-27T03:02:55.608Z,83.66
2022-09-27T03:05:45.986Z,83.58
2022-09-27T03:08:14.306Z,83.54
2022-09-27T03:10:41.162Z,83.69
2022-09-27T03:13:08.258Z,83.52
2022-09-27T03:15:35.898Z,83.75
2022-09-27T03:18:03.722Z,83.69
2022-09-27T03:20:31.552Z,83.66
2022-09-27T03:23:07.945Z,83.68
2022-09-27T03:25:34.689Z,83.84
2022-09-27T03:28:02.356Z,83.87
2022-09-27T03:30:29.470Z,83.71
2022-09-27T03:32:56.218Z,83.92
2022-09-27T03:35:43.196Z,83.86
2022-09-27T03:38:11.241Z,84.00
2022-09-27T03:40:39.061Z,83.71
2022-09-27T03:43:10.010Z,83.56
2022-09-27T03:45:37.107Z,83.39
2022-09-27T03:48:07.338Z,83.53
2022-09-27T03:50:34.505Z,83.40
2022-09-27T03:53:01.464Z,83.35
2022-09-27T03:55:28.203Z,83.37
2022-09-27T03:57:55.405Z,83.55
2022-09-27T04:00:22.825Z,83.49
2022-09-27T04:02:49.739Z,83.47
2022-09-27T04:05:22.461Z,83.44
2022-09-27T04:07:49.849Z,83.52
2022-09-27T04:10:18.678Z,83.45
2022-09-27T04:12:45.916Z,83.40
2022-09-27T04:15:13.122Z,83.42
2022-09-27T04:17:49.229Z,83.62
2022-09-27T04:20:34.910Z,83.59
2022-09-27T04:23:07.245Z,83.43
2022-09-27T04:25:36.599Z,83.60
2022-09-27T04:28:18.585Z,83.68
2022-09-27T04:30:46.933Z,83.89
2022-09-27T04:33:33.268Z,83.87
2022-09-27T04:36:25.954Z,83.82
2022-09-27T04:39:02.870Z,83.62
2022-09-27T04:41:30.254Z,83.86
2022-09-27T04:43:59.623Z,83.94
2022-09-27T04:46:31.902Z,84.11
2022-09-27T04:49:01.870Z,83.90
2022-09-27T04:51:30.740Z,84.05
2022-09-27T04:53:58.312Z,83.96
2022-09-27T04:56:40.048Z,83.91
2022-09-27T04:59:10.741Z,83.83
2022-09-27T05:01:40.134Z,83.97
2022-09-27T05:04:18.183Z,83.68
2022-09-27T05:06:53.696Z,83.82
2022-09-27T05:09:33.013Z,83.78
2022-09-27T05:12:00.997Z,83.65
2022-09-27T05:14:27.720Z,83.68
2022-09-27T05:17:07.949Z,83.94
2022-09-27T05:20:01.040Z,83.62
2022-09-27T05:22:48.070Z,83.71
2022-09-27T05:25:15.044Z,83.76
2022-09-27T05:27:41.854Z,83.71
2022-09-27T05:30:11.128Z,83.45
2022-09-27T05:32:50.995Z,83.45
2022-09-27T05:35:47.503Z,83.49
2022-09-27T05:38:14.444Z,83.50
2022-09-27T05:40:45.501Z,83.33
2022-09-27T05:43:12.503Z,83.68
2022-09-27T05:45:39.539Z,83.37
2022-09-27T05:48:07.169Z,83.28
2022-09-27T05:50:42.443Z,83.52
2022-09-27T05:53:10.456Z,83.28
2022-09-27T05:55:38.104Z,83.34
2022-09-27T05:58:08.362Z,82.92
2022-09-27T06:00:43.804Z,83.33
2022-09-27T06:03:30.556Z,83.36
2022-09-27T06:06:29.588Z,83.26
2022-09-27T06:08:57.892Z,83.15
2022-09-27T06:11:27.588Z,83.09
2022-09-27T06:13:54.635Z,83.00
2022-09-27T06:16:22.415Z,82.92
2022-09-27T06:18:49.232Z,83.04
2022-09-27T06:21:16.978Z,82.97
2022-09-27T06:23:54.221Z,82.89
2022-09-27T06:26:28.456Z,82.86
2022-09-27T06:29:08.607Z,82.78
2022-09-27T06:31:40.052Z,82.54
2022-09-27T06:34:36.625Z,82.66
2022-09-27T06:37:04.245Z,82.87
2022-09-27T06:39:33.350Z,82.34
2022-09-27T06:42:23.679Z,82.23
2022-09-27T06:45:09.039Z,82.02
2022-09-27T06:48:16.154Z,81.87
2022-09-27T06:51:06.047Z,81.52
2022-09-27T06:53:33.225Z,81.51
2022-09-27T06:56:01.306Z,81.75
2022-09-27T06:58:52.199Z,81.92
2022-09-27T07:01:37.647Z,81.52
2022-09-27T07:04:25.341Z,81.34
2022-09-27T07:07:12.938Z,81.78
2022-09-27T07:09:44.663Z,81.41
2022-09-27T07:12:13.464Z,81.59
2022-09-27T07:14:41.101Z,81.47
2022-09-27T07:17:13.551Z,81.58
2022-09-27T07:19:43.787Z,81.21
2022-09-27T07:22:12.044Z,81.93
2022-09-27T07:24:40.469Z,81.97
2022-09-27T07:27:07.417Z,82.05
2022-09-27T07:29:34.323Z,82.06
2022-09-27T07:32:01.880Z,82.07
2022-09-27T07:34:28.745Z,82.49
2022-09-27T07:37:05.520Z,82.73
2022-09-27T07:39:37.098Z,82.51
2022-09-27T07:42:06.255Z,82.52
2022-09-27T07:44:34.758Z,82.17
2022-09-27T07:47:25.798Z,82.05
2022-09-27T07:50:05.286Z,82.05
2022-09-27T07:52:57.812Z,82.36
2022-09-27T07:55:44.528Z,82.47
2022-09-27T07:58:13.751Z,82.52
2022-09-27T08:00:41.243Z,82.18
2022-09-27T08:03:15.396Z,82.49
2022-09-27T08:05:43.923Z,82.62
2022-09-27T08:08:10.974Z,82.73
2022-09-27T08:10:39.867Z,82.89
2022-09-27T08:13:06.654Z,82.78
2022-09-27T08:15:39.168Z,82.79
2022-09-27T08:18:09.474Z,83.24
2022-09-27T08:20:59.271Z,83.47
2022-09-27T08:23:48.763Z,83.31
2022-09-27T08:26:44.825Z,83.85
2022-09-27T08:29:19.501Z,83.63
2022-09-27T08:31:52.421Z,83.82
2022-09-27T08:34:19.613Z,84.24
2022-09-27T08:36:46.305Z,84.07
2022-09-27T08:39:13.273Z,84.40
2022-09-27T08:41:49.704Z,84.56
2022-09-27T08:44:54.449Z,85.25
2022-09-27T08:47:32.896Z,85.24
2022-09-27T08:50:19.043Z,85.24
2022-09-27T08:52:53.607Z,85.85
2022-09-27T08:55:30.481Z,85.53
2022-09-27T08:57:59.065Z,85.84
2022-09-27T09:00:29.769Z,86.12
2022-09-27T09:02:58.947Z,86.61
2022-09-27T09:05:34.799Z,87.39
2022-09-27T09:08:27.605Z,87.30
2022-09-27T09:11:32.835Z,86.87
2022-09-27T09:14:34.063Z,86.64
2022-09-27T09:17:36.663Z,86.22
2022-09-27T09:20:50.705Z,85.89
2022-09-27T09:23:24.631Z,86.07
2022-09-27T09:26:38.785Z,85.55
2022-09-27T09:29:39.045Z,85.20
2022-09-27T09:32:41.355Z,84.98
2022-09-27T09:35:15.809Z,84.37
2022-09-27T09:37:53.193Z,84.27
2022-09-27T09:40:26.733Z,83.68
2022-09-27T09:43:02.790Z,83.51
2022-09-27T09:45:48.086Z,82.93
2022-09-27T09:48:49.902Z,83.38
2022-09-27T09:51:29.252Z,83.12
2022-09-27T09:54:06.683Z,82.58
2022-09-27T09:56:45.779Z,81.83
2022-09-27T09:59:18.932Z,82.27
2022-09-27T10:01:49.237Z,81.57
2022-09-27T10:04:21.036Z,81.15
2022-09-27T10:06:49.488Z,80.46
2022-09-27T10:09:21.485Z,79.65
2022-09-27T10:12:09.905Z,79.80
2022-09-27T10:14:38.121Z,79.46
2022-09-27T10:17:11.446Z,80.22
2022-09-27T10:19:39.637Z,79.75
2022-09-27T10:22:23.418Z,80.44
2022-09-27T10:25:06.801Z,78.38
2022-09-27T10:27:56.122Z,79.83
2022-09-27T10:30:35.484Z,78.29
2022-09-27T10:33:19.159Z,77.78
2022-09-27T10:36:02.219Z,78.13
2022-09-27T10:38:35.868Z,77.40
2022-09-27T10:41:32.796Z,76.08
2022-09-27T10:44:16.270Z,76.38
2022-09-27T10:46:49.655Z,75.60
2022-09-27T10:49:41.823Z,75.66
2022-09-27T10:52:22.728Z,75.57
2022-09-27T10:55:16.654Z,75.31
2022-09-27T10:57:50.062Z,74.89
2022-09-27T11:00:24.297Z,73.01
2022-09-27T11:02:57.612Z,73.31
2022-09-27T11:05:28.021Z,71.29
2022-09-27T11:07:57.104Z,69.71
2022-09-27T11:10:37.999Z,68.60
2022-09-27T11:13:15.122Z,65.29
2022-09-27T11:16:11.538Z,65.54
2022-09-27T11:18:52.738Z,66.96
2022-09-27T11:21:50.470Z,68.31
2022-09-27T11:24:58.250Z,66.32
2022-09-27T11:27:41.189Z,67.21
2022-09-27T11:30:10.993Z,67.85
2022-09-27T11:33:50.570Z,67.64
2022-09-27T11:36:34.414Z,68.62
2022-09-27T11:39:02.970Z,68.64
2022-09-27T11:41:35.953Z,66.35
2022-09-27T11:44:25.875Z,67.80
2022-09-27T11:47:03.484Z,68.70
2022-09-27T11:49:55.382Z,66.75
2022-09-27T11:52:27.655Z,66.49
2022-09-27T11:54:57.087Z,67.11
2022-09-27T11:57:31.720Z,66.60
2022-09-27T12:00:09.824Z,69.07
2022-09-27T12:03:08.272Z,69.40
2022-09-27T12:05:40.808Z,69.95
2022-09-27T12:08:23.110Z,70.20
2022-09-27T12:11:15.153Z,71.95
2022-09-27T12:13:59.294Z,71.60
2022-09-27T12:16:27.848Z,71.03
2022-09-27T12:18:55.471Z,70.85
2022-09-27T12:21:38.815Z,70.43
2022-09-27T12:24:06.005Z,67.84
2022-09-27T12:26:47.451Z,69.58
2022-09-27T12:29:30.470Z,69.26
2022-09-27T12:32:18.414Z,67.43
2022-09-27T12:34:54.480Z,68.37
2022-09-27T12:37:29.073Z,68.64
2022-09-27T12:40:07.827Z,70.43
2022-09-27T12:42:50.693Z,69.75
2022-09-27T12:46:03.699Z,68.97
2022-09-27T12:49:05.281Z,68.48
2022-09-27T12:51:58.516Z,68.30
2022-09-27T12:54:57.458Z,68.81
2022-09-27T12:57:48.229Z,68.39
2022-09-27T13:00:51.825Z,68.23
2022-09-27T13:03:35.912Z,68.32
2022-09-27T13:06:34.437Z,68.10
2022-09-27T13:09:10.894Z,66.98
2022-09-27T13:11:58.579Z,67.52
2022-09-27T13:14:28.030Z,67.34
2022-09-27T13:16:54.866Z,67.83
2022-09-27T13:19:39.637Z,67.81
2022-09-27T13:22:31.050Z,66.99
2022-09-27T13:26:15.072Z,67.79
2022-09-27T13:28:48.806Z,67.36
2022-09-27T13:31:54.862Z,68.68
2022-09-27T13:34:51.915Z,66.59
2022-09-27T13:37:48.860Z,66.41
2022-09-27T13:40:37.572Z,65.56
2022-09-27T13:44:05.157Z,64.43
2022-09-27T13:47:00.988Z,66.05
2022-09-27T13:49:39.482Z,66.65
2022-09-27T13:52:36.405Z,66.45
2022-09-27T13:55:38.293Z,67.18
2022-09-27T13:58:16.875Z,66.20
2022-09-27T14:00:47.463Z,66.50
2022-09-27T14:03:52.957Z,66.67
2022-09-27T14:06:26.421Z,66.59
2022-09-27T14:08:57.867Z,66.13
2022-09-27T14:11:30.685Z,65.97
2022-09-27T14:13:59.486Z,66.00
2022-09-27T14:16:36.512Z,66.67
2022-09-27T14:19:03.879Z,66.37
2022-09-27T14:21:39.621Z,65.25
2022-09-27T14:24:24.531Z,65.96
2022-09-27T14:27:04.578Z,65.30
2022-09-27T14:29:34.435Z,65.33
2022-09-27T14:32:12.222Z,64.31
2022-09-27T14:35:05.969Z,65.10
2022-09-27T14:37:33.169Z,64.76
2022-09-27T14:40:19.161Z,63.94
2022-09-27T14:42:46.156Z,64.42
2022-09-27T14:45:15.582Z,64.75
2022-09-27T14:47:47.338Z,64.26
2022-09-27T14:50:33.389Z,63.64
2022-09-27T14:53:01.817Z,63.53
2022-09-27T14:55:30.979Z,63.52
2022-09-27T14:58:00.614Z,62.59
2022-09-27T15:00:31.343Z,63.14
2022-09-27T15:03:04.943Z,63.57
2022-09-27T15:05:34.461Z,63.99
2022-09-27T15:08:06.463Z,64.52
2022-09-27T15:10:36.667Z,64.15
2022-09-27T15:13:05.361Z,64.81
2022-09-27T15:15:39.124Z,64.17
2022-09-27T15:18:41.604Z,64.73
2022-09-27T15:21:10.741Z,64.96
2022-09-27T15:23:45.118Z,64.90
2022-09-27T15:26:25.949Z,64.65
2022-09-27T15:28:53.498Z,63.72
2022-09-27T15:31:35.283Z,63.74
2022-09-27T15:34:06.751Z,64.06
2022-09-27T15:36:49.922Z,64.17
2022-09-27T15:39:19.445Z,64.31
2022-09-27T15:42:10.274Z,64.44
2022-09-27T15:44:43.261Z,63.88
2022-09-27T15:47:32.091Z,64.38
2022-09-27T15:49:59.599Z,64.75
2022-09-27T15:52:58.170Z,64.30
2022-09-27T15:55:29.794Z,65.20
2022-09-27T15:58:02.030Z,66.19
2022-09-27T16:00:29.898Z,65.84
2022-09-27T16:02:56.741Z,66.08
2022-09-27T16:05:24.213Z,66.25
2022-09-27T16:07:51.654Z,67.04
2022-09-27T16:10:26.167Z,67.13
2022-09-27T16:12:52.955Z,66.95
2022-09-27T16:15:19.603Z,68.08
2022-09-27T16:17:46.222Z,68.19
2022-09-27T16:20:23.183Z,67.39
2022-09-27T16:22:50.745Z,68.00
2022-09-27T16:25:17.864Z,67.68
2022-09-27T16:27:44.894Z,67.02
2022-09-27T16:30:12.386Z,67.34
2022-09-27T16:32:47.107Z,67.72
2022-09-27T16:35:16.421Z,67.47
2022-09-27T16:37:43.802Z,68.15
2022-09-27T16:40:13.239Z,68.76
2022-09-27T16:42:41.248Z,67.75
2022-09-27T16:45:11.134Z,66.73
2022-09-27T16:47:39.622Z,66.73
2022-09-27T16:50:25.349Z,65.79
2022-09-27T16:52:52.498Z,65.13
2022-09-27T16:55:20.847Z,64.66
2022-09-27T16:57:48.326Z,64.15
2022-09-27T17:00:18.613Z,64.48
2022-09-27T17:02:48.595Z,64.82
2022-09-27T17:05:16.103Z,64.13
2022-09-27T17:07:42.814Z,64.27
2022-09-27T17:10:09.773Z,64.38
2022-09-27T17:12:36.783Z,62.89
2022-09-27T17:15:04.361Z,62.70
2022-09-27T17:17:30.965Z,62.63
2022-09-27T17:19:57.699Z,63.18
2022-09-27T17:22:24.995Z,63.06
2022-09-27T17:24:52.355Z,63.06
2022-09-27T17:27:21.014Z,63.16
2022-09-27T17:29:50.640Z,63.16
2022-09-27T17:32:17.502Z,62.66
2022-09-27T17:34:44.660Z,62.40
2022-09-27T17:37:11.318Z,61.82
2022-09-27T17:39:38.220Z,60.04
2022-09-27T17:42:05.491Z,59.51
2022-09-27T17:44:32.577Z,59.15
2022-09-27T17:47:17.894Z,58.33
2022-09-27T17:50:03.054Z,59.51
2022-09-27T17:52:31.000Z,57.62
2022-09-27T17:54:58.686Z,58.08
2022-09-27T17:57:25.791Z,57.27
2022-09-27T17:59:53.642Z,57.15
2022-09-27T18:02:21.322Z,57.75
2022-09-27T18:04:48.126Z,58.81
2022-09-27T18:07:14.768Z,57.85
2022-09-27T18:09:41.948Z,58.45
2022-09-27T18:12:08.825Z,58.06
2022-09-27T18:14:36.618Z,58.43
2022-09-27T18:17:03.636Z,59.17
2022-09-27T18:19:30.330Z,58.48
2022-09-27T18:21:56.977Z,57.74
2022-09-27T18:24:24.785Z,57.70
2022-09-27T18:26:51.411Z,57.85
2022-09-27T18:29:18.935Z,58.04
2022-09-27T18:31:48.890Z,58.22
2022-09-27T18:34:17.650Z,58.83
2022-09-27T18:36:44.822Z,59.22
2022-09-27T18:39:19.001Z,58.75
2022-09-27T18:41:48.578Z,59.22
2022-09-27T18:44:16.419Z,59.41
2022-09-27T18:46:43.374Z,59.22
2022-09-27T18:49:12.707Z,60.14
2022-09-27T18:51:43.759Z,60.63
2022-09-27T18:54:22.273Z,60.25
2022-09-27T18:56:50.635Z,60.50
2022-09-27T18:59:17.721Z,60.09
2022-09-27T19:01:45.843Z,60.32
2022-09-27T19:04:20.469Z,60.31
2022-09-27T19:06:50.278Z,60.22
2022-09-27T19:09:17.319Z,60.12
2022-09-27T19:11:44.290Z,60.50
2022-09-27T19:14:15.804Z,60.21
2022-09-27T19:16:42.561Z,60.07
2022-09-27T19:19:09.603Z,59.97
2022-09-27T19:21:36.222Z,60.77
2022-09-27T19:24:02.927Z,61.35
2022-09-27T19:26:29.739Z,60.45
2022-09-27T19:28:57.663Z,60.72
2022-09-27T19:31:29.592Z,61.34
2022-09-27T19:34:00.144Z,60.96
2022-09-27T19:36:28.308Z,60.73
2022-09-27T19:38:58.293Z,61.17
2022-09-27T19:41:25.375Z,61.16
2022-09-27T19:43:52.875Z,61.02
2022-09-27T19:46:20.968Z,60.31
2022-09-27T19:48:49.307Z,60.45
2022-09-27T19:51:18.904Z,59.80
2022-09-27T19:53:46.287Z,60.71
2022-09-27T19:56:14.313Z,60.29
2022-09-27T19:58:42.563Z,60.36
2022-09-27T20:01:11.802Z,61.06
2022-09-27T20:03:43.760Z,61.40
2022-09-27T20:06:13.367Z,60.96
2022-09-27T20:08:41.123Z,61.01
2022-09-27T20:11:10.733Z,61.76
2022-09-27T20:13:38.126Z,61.84
2022-09-27T20:16:09.446Z,62.01
2022-09-27T20:18:47.474Z,62.90
2022-09-27T20:21:15.161Z,63.48
2022-09-27T20:23:42.138Z,63.20
2022-09-27T20:26:11.188Z,62.87
2022-09-27T20:28:45.860Z,62.99
2022-09-27T20:31:18.287Z,64.11
2022-09-27T20:33:46.884Z,64.31
2022-09-27T20:36:16.370Z,63.81
2022-09-27T20:38:45.414Z,63.92
2022-09-27T20:41:16.551Z,64.61
2022-09-27T20:43:43.766Z,65.22
2022-09-27T20:46:16.276Z,65.55
2022-09-27T20:48:44.498Z,65.75
2022-09-27T20:51:16.284Z,66.02
2022-09-27T20:53:45.108Z,66.66
2022-09-27T20:56:22.607Z,66.84
2022-09-27T20:58:51.464Z,66.25
2022-09-27T21:01:19.813Z,66.91
2022-09-27T21:03:46.794Z,67.18
2022-09-27T21:06:16.308Z,67.74
2022-09-27T21:08:43.189Z,68.18
2022-09-27T21:11:13.107Z,68.76
2022-09-27T21:13:41.112Z,68.51
2022-09-27T21:16:14.369Z,69.06
2022-09-27T21:18:42.084Z,69.50
2022-09-27T21:21:11.608Z,69.22
2022-09-27T21:23:44.111Z,69.03
2022-09-27T21:26:15.919Z,69.34
2022-09-27T21:28:44.984Z,69.77
2022-09-27T21:31:16.657Z,70.06
2022-09-27T21:33:49.042Z,69.62
2022-09-27T21:36:16.149Z,69.77
2022-09-27T21:38:43.296Z,70.01
2022-09-27T21:41:12.682Z,70.26
2022-09-27T21:43:42.489Z,70.25
2022-09-27T21:46:11.572Z,70.85
2022-09-27T21:48:40.571Z,71.05
2022-09-27T21:51:18.705Z,71.68
2022-09-27T21:53:51.304Z,72.22
2022-09-27T21:56:19.066Z,72.16
2022-09-27T21:58:46.539Z,72.06
2022-09-27T22:01:18.306Z,72.75
2022-09-27T22:03:46.573Z,72.91
2022-09-27T22:06:31.460Z,72.98
2022-09-27T22:08:59.706Z,73.20
2022-09-27T22:11:36.629Z,74.48
2022-09-27T22:14:06.905Z,74.89
2022-09-27T22:16:33.801Z,75.30
2022-09-27T22:19:00.675Z,75.60
2022-09-27T22:21:30.074Z,75.55
2022-09-27T22:24:07.236Z,75.57
2022-09-27T22:26:37.198Z,74.91
2022-09-27T22:29:04.999Z,74.33
2022-09-27T22:31:31.997Z,74.17
2022-09-27T22:34:01.210Z,73.57
2022-09-27T22:36:29.105Z,72.59
2022-09-27T22:38:56.543Z,72.86
2022-09-27T22:41:23.849Z,72.12
2022-09-27T22:43:53.461Z,71.54
2022-09-27T22:46:21.990Z,71.80
2022-09-27T22:48:49.778Z,71.81
2022-09-27T22:51:17.573Z,71.35
2022-09-27T22:53:44.796Z,70.70
2022-09-27T22:56:15.922Z,70.98
2022-09-27T22:58:44.145Z,71.17
2022-09-27T23:01:13.261Z,70.96
2022-09-27T23:03:40.264Z,70.78
2022-09-27T23:06:07.484Z,70.90
2022-09-27T23:08:36.287Z,70.35
2022-09-27T23:11:08.485Z,68.88
2022-09-27T23:13:37.810Z,69.12
2022-09-27T23:16:06.974Z,68.33
2022-09-27T23:18:34.433Z,67.67
2022-09-27T23:21:03.378Z,66.51
2022-09-27T23:23:35.286Z,66.60
2022-09-27T23:26:04.528Z,65.41
2022-09-27T23:28:32.319Z,64.69
2022-09-27T23:31:08.500Z,64.56
2022-09-27T23:33:41.466Z,64.42
2022-09-27T23:36:10.711Z,64.60
2022-09-27T23:38:40.275Z,64.11
2022-09-27T23:41:08.384Z,64.20
2022-09-27T23:43:36.382Z,64.16
2022-09-27T23:46:07.502Z,64.93
2022-09-27T23:48:35.481Z,65.27
2022-09-27T23:51:03.927Z,64.54
2022-09-27T23:53:30.838Z,64.99
2022-09-27T23:56:03.064Z,64.60
2022-09-27T23:58:33.745Z,64.97
